Webcam Webcam


Onweer radar blitzortung!


Regen radar rain snow radar


U vindt ons ook hier:

Het Weer Aktueel

European Weather Network

AWEKAS

Weather Underground


Het weer levert geen direct gevaar op.    Er zijn geen waarschuwingen afgegeven.

METAR rapporten vliegvelden

  
EHVK - Volkel, Noord Brabant, NL
Gewijzigd: 23-06-2017 06:55
Bewolking
Bewolking  
 Wind vanuit WZW
Wind: WZW 13 km/h
Temperatuur:  18°C
Dauwpunt:  15°C
Vochtigheid:  83%
Barometer:  1013 hPa
Bewolking:  Bewolking
Zicht:  10 km
Bewolking:  Grotendeels bewolkt 366 m
Bewolking 518 m
2017/06/23 04:55 EHVK 230455Z AUTO 25007KT 220V300 9999 BKN012 OVC017 18/15 Q1013 GRN
EHEH - Eindhoven, Noord Brabant, NL
Gewijzigd: 23-06-2017 06:55
Grotendeels bewolkt
Grotendeels bewolkt  
 Wind vanuit WZW
Wind: WZW 13 km/h
Temperatuur:  18°C
Dauwpunt:  15°C
Vochtigheid:  83%
Barometer:  1014 hPa
Bewolking:  Grotendeels bewolkt
Zicht:  10 km
Bewolking:  Grotendeels bewolkt 1189 m
2017/06/23 04:55 EHEH 230455Z AUTO 24007KT 200V290 9999 BKN039 18/15 Q1014 BLU 24007KT 9999 BKN014 BECMG FEW015 BKN035
EHGR - Gilze Rijen, Noord Brabant, NL
Gewijzigd: 23-06-2017 06:55
Bewolking
Bewolking  
 Wind vanuit WZW
Wind: WZW 9 km/h
Temperatuur:  18°C
Dauwpunt:  16°C
Vochtigheid:  88%
Barometer:  1014 hPa
Bewolking:  Bewolking
Zicht:  10 km
Bewolking:  Bewolking 1097 m
2017/06/23 04:55 EHGR 230455Z AUTO 24005KT 220V280 9999 OVC036 18/16 Q1014 BLU
EHWO - Woensdrecht, Noord Brabant, NL
Gewijzigd: 23-06-2017 06:59
Bewolking
Bewolking  
 Wind vanuit WZW
Wind: WZW 13 km/h
Temperatuur:  17°C
Dauwpunt:  16°C
Vochtigheid:  94%
Barometer:  1014 hPa
Bewolking:  Bewolking
Zicht:  10 km
Bewolking:  Grotendeels bewolkt 244 m
Grotendeels bewolkt 1311 m
Bewolking 10058 m
2017/06/23 04:59 EHWO 230459Z AUTO 24007KT 200V260 9999 BKN008 BKN043 OVC330 17/16 Q1014 GRN
EHBK - Maastricht, Limburg, NL
Gewijzigd: 23-06-2017 06:55
Bewolking
Bewolking  
 Wind vanuit ZW
Wind: ZW 19 km/h
Temperatuur:  17°C
Dauwpunt:  14°C
Vochtigheid:  83%
Barometer:  1015 hPa
Bewolking:  Bewolking
Zicht:  10 km
Bewolking:  Licht bewolkt 1067 m
Bewolking 1250 m
2017/06/23 04:55 EHBK 230455Z AUTO 23010KT 9999 FEW035 OVC041 17/14 Q1015 NOSIG
EHDL - Arnhem/Deelen, Gelderland, NL
Gewijzigd: 23-06-2017 06:55
Grotendeels bewolkt
Grotendeels bewolkt  
 Wind vanuit WZW
Wind: WZW 9 km/h
Temperatuur:  17°C
Dauwpunt:  14°C
Vochtigheid:  83%
Barometer:  1013 hPa
Bewolking:  Grotendeels bewolkt
Zicht:  10 km
Bewolking:  Gedeeltelijk bewolkt 5182 m
Grotendeels bewolkt 7010 m
2017/06/23 04:55 EHDL 230455Z AUTO 24005KT 200V300 9999 SCT170 BKN230 17/14 Q1013 BLU
EHAM - Amsterdam/Schiphol, Noord Holland, NL
Gewijzigd: 23-06-2017 06:55
Licht bewolkt
Licht bewolkt  
 Wind vanuit ZW
Wind: ZW 15 km/h
Temperatuur:  17°C
Dauwpunt:  15°C
Vochtigheid:  88%
Barometer:  1013 hPa
Bewolking:  Licht bewolkt
Zicht:  10 km
Bewolking:  Licht bewolkt 366 m
2017/06/23 04:55 EHAM 230455Z 23008KT 9999 FEW012 17/15 Q1013 NOSIG
EHGG - Groningen/Eelde, Groningen, NL
Gewijzigd: 23-06-2017 06:55
Bewolking
Bewolking  
 Wind vanuit W
Wind: W 19 km/h
Temperatuur:  16°C
Dauwpunt:  13°C
Vochtigheid:  83%
Barometer:  1011 hPa
Bewolking:  Bewolking
Zicht:  10 km
Bewolking:  Gedeeltelijk bewolkt 396 m
Bewolking 488 m
2017/06/23 04:55 EHGG 230455Z AUTO 27010KT 210V310 9999 SCT013 OVC016 16/13 Q1011 TEMPO BKN008
EHLW - Leeuwarden, Friesland, NL
Gewijzigd: 23-06-2017 06:56
Bewolking
Bewolking  
 Wind vanuit W
Wind: W 17 km/h
Temperatuur:  16°C
Dauwpunt:  14°C
Vochtigheid:  88%
Barometer:  1011 hPa
Bewolking:  Bewolking
Zicht:  10 km
Bewolking:  Grotendeels bewolkt 274 m
Bewolking 335 m
2017/06/23 04:56 EHLW 230456Z AUTO 27009KT 240V310 9999 BKN009 OVC011 16/14 Q1011 GRN
EHKD - De Kooy, Noord Holland, NL
Gewijzigd: 23-06-2017 06:55
Helder
Helder  
 Wind vanuit W
Wind: W 19 km/h
Temperatuur:  16°C
Dauwpunt:  13°C
Vochtigheid:  83%
Barometer:  1012 hPa
Bewolking:  Helder
Zicht:  10 km
2017/06/23 04:55 EHKD 230455Z AUTO 27010KT 240V300 9999 NCD 16/13 Q1012 BLU 27010KT CAVOK
EHRD - Rotterdam, Zuid Holland, NL
Gewijzigd: 23-06-2017 06:55
Grotendeels bewolkt
Grotendeels bewolkt  
 Wind vanuit W
Wind: W 11 km/h
Temperatuur:  17°C
Dauwpunt:  15°C
Vochtigheid:  88%
Barometer:  1013 hPa
Bewolking:  Grotendeels bewolkt
Zicht:  10 km
Bewolking:  Grotendeels bewolkt 1189 m
2017/06/23 04:55 EHRD 230455Z AUTO 26006KT 9999 BKN039 17/15 Q1013 NOSIG
EHFS - Vlissingen, Zeeland, NL
Gewijzigd: 23-06-2017 06:55
Gedeeltelijk bewolkt
Gedeeltelijk bewolkt  
 Wind vanuit WZW
Wind: WZW 22 km/h
Temperatuur:  17°C
Dauwpunt:  16°C
Vochtigheid:  94%
Barometer:  1014 hPa
Bewolking:  Gedeeltelijk bewolkt
Zicht:  9 km
Bewolking:  Gedeeltelijk bewolkt 1280 m
2017/06/23 04:55 EHFS 230455Z AUTO 24012KT 9000 SCT042/// 17/16 Q1014

Script ontwikkeld door   Saratoga-weather.org Aangepast voor de template door  Weerstation Leuven

Apparatuur in gebruik:


Weerstation
Davis VP2

Weerprogramma
WeatherLink

Weercomputer
Sponsor

Webleverancier

Davis VP2

WeatherLink

Sponsor